Time;durP1;ratioP1;P1;durP2;ratioP2;P2;SDS_P1;SDS_P2;PMS_P1;PMS_P2;Temp;Humidity;BMP_temperature;BMP_pressure;BME280_temperature;BME280_humidity;BME280_pressure;Samples;Min_cycle;Max_cycle;Signal;HPM_P1;HPM_P2
2022/01/20 00:03:32;;;;;;;11.73;5.20;;;3.40;99.90;3.10;100277.00;;;;4998093;27;87756;-68
2022/01/20 00:27:28;;;;;;;5.20;4.10;;;3.50;99.90;3.30;100270.00;;;;5000024;27;88028;-67
2022/01/20 00:30:17;;;;;;;5.93;4.17;;;3.50;99.90;3.40;100273.00;;;;4995977;28;88834;-67
2022/01/20 00:35:31;;;;;;;7.00;4.70;;;3.60;99.90;3.40;100272.00;;;;5015953;27;87782;-66
2022/01/20 00:37:56;;;;;;;4.80;3.77;;;3.60;99.90;3.40;100257.00;;;;4996289;28;87965;-66
2022/01/20 00:40:23;;;;;;;5.90;3.93;;;3.60;99.90;3.50;100260.00;;;;4994880;28;118465;-66
2022/01/20 00:42:50;;;;;;;5.63;4.37;;;3.70;99.90;3.50;100253.00;;;;5009732;27;87763;-67
2022/01/20 00:45:16;;;;;;;7.23;4.67;;;3.80;99.90;3.60;100273.00;;;;5017137;27;87692;-67
2022/01/20 00:47:42;;;;;;;6.60;4.40;;;3.70;99.90;3.60;100255.00;;;;5015268;27;92391;-67
2022/01/20 00:50:10;;;;;;;5.93;3.83;;;3.70;99.90;3.60;100265.00;;;;5015940;27;88381;-67
2022/01/20 00:52:36;;;;;;;5.80;4.00;;;3.80;99.90;3.60;100275.00;;;;5015277;27;87828;-66
2022/01/20 00:55:04;;;;;;;5.07;3.77;;;3.80;99.90;3.60;100262.00;;;;5006148;27;94060;-66
2022/01/20 00:57:30;;;;;;;5.83;4.37;;;3.80;99.90;3.60;100269.00;;;;4995861;27;90298;-67
2022/01/20 00:59:56;;;;;;;6.40;3.57;;;3.80;99.90;3.60;100269.00;;;;4995790;27;88667;-66
2022/01/20 01:02:22;;;;;;;8.33;3.73;;;3.80;99.90;3.70;100260.00;;;;4995596;27;87961;-66
2022/01/20 01:04:48;;;;;;;4.60;3.63;;;3.80;99.90;3.70;100269.00;;;;4997415;27;87773;-66
2022/01/20 01:09:46;;;;;;;5.67;3.73;;;3.80;99.90;3.70;100282.00;;;;4995200;28;87815;-68
2022/01/20 01:12:24;;;;;;;4.43;3.33;;;3.80;99.90;3.70;100288.00;;;;4996892;27;87782;-67
2022/01/20 01:14:52;;;;;;;6.53;3.77;;;3.90;99.90;3.60;100290.00;;;;4996327;28;87220;-67
2022/01/20 01:24:45;;;;;;;7.93;4.40;;;3.80;99.90;3.60;100297.00;;;;4994792;27;87846;-71
2022/01/20 01:27:13;;;;;;;4.97;3.37;;;3.80;99.90;3.60;100316.00;;;;4983118;28;88607;-72
2022/01/20 01:32:10;;;;;;;3.43;1.67;;;4.20;99.90;3.40;100334.00;;;;4992334;28;87694;-70
2022/01/20 01:34:39;;;;;;;1.93;1.30;;;3.70;99.90;3.20;100325.00;;;;4975550;28;87543;-69
2022/01/20 01:37:08;;;;;;;4.87;1.50;;;3.50;99.90;3.10;100323.00;;;;5004062;27;87924;-68
2022/01/20 01:39:34;;;;;;;4.83;1.20;;;3.30;99.90;3.00;100321.00;;;;5007219;27;87730;-69
2022/01/20 01:42:00;;;;;;;4.20;1.67;;;3.20;99.90;2.90;100314.00;;;;4996574;27;105688;-70
2022/01/20 01:44:29;;;;;;;1.93;1.47;;;3.20;99.90;2.90;100307.00;;;;5015163;27;87846;-70
2022/01/20 01:46:58;;;;;;;2.80;1.37;;;3.10;99.90;2.80;100288.00;;;;5014298;27;89095;-71
2022/01/20 01:49:24;;;;;;;3.93;1.97;;;3.10;99.90;2.80;100307.00;;;;5013084;27;89876;-69
2022/01/20 01:51:49;;;;;;;4.90;1.60;;;3.10;99.90;2.80;100294.00;;;;5014038;27;109339;-70
2022/01/20 01:54:16;;;;;;;4.30;1.87;;;3.30;99.90;2.80;100306.00;;;;5014865;27;87698;-70
2022/01/20 01:56:43;;;;;;;7.97;1.67;;;3.00;99.90;2.80;100291.00;;;;4979112;27;90920;-70
2022/01/20 01:59:09;;;;;;;2.57;1.07;;;3.10;99.90;2.80;100303.00;;;;5013406;27;97906;-70
2022/01/20 02:01:37;;;;;;;4.77;1.60;;;3.00;99.90;2.80;100293.00;;;;5015458;27;97304;-70
2022/01/20 02:04:14;;;;;;;1.87;1.33;;;3.00;99.90;2.70;100306.00;;;;5003573;27;87361;-69
2022/01/20 02:07:12;;;;;;;4.10;1.30;;;3.00;99.90;2.70;100301.00;;;;4994792;27;89148;-68
2022/01/20 02:17:51;;;;;;;2.17;1.57;;;2.90;99.90;2.70;100296.00;;;;4994902;28;87812;-69
2022/01/20 02:18:36;;;;;;;4.37;1.43;;;3.00;99.90;2.70;100303.00;;;;5005025;27;88000;-68
2022/01/20 02:20:59;;;;;;;4.87;1.17;;;2.90;99.90;2.60;100307.00;;;;4994781;27;87719;-67
2022/01/20 02:23:26;;;;;;;6.33;1.77;;;2.80;99.90;2.60;100299.00;;;;4995225;27;110495;-67
2022/01/20 02:25:53;;;;;;;5.83;1.53;;;2.90;99.90;2.60;100288.00;;;;4995045;28;87776;-67
2022/01/20 02:28:18;;;;;;;2.70;1.20;;;3.20;99.90;2.60;100288.00;;;;4991646;28;102466;-67
2022/01/20 02:30:44;;;;;;;4.57;1.97;;;2.90;99.90;2.50;100284.00;;;;4995453;28;88047;-67
2022/01/20 02:33:16;;;;;;;7.63;2.03;;;2.80;99.90;2.50;100284.00;;;;4993497;27;95555;-67
2022/01/20 02:35:54;;;;;;;7.83;3.33;;;2.70;99.90;2.50;100275.00;;;;5013787;27;87951;-67
2022/01/20 02:38:28;;;;;;;4.67;2.90;;;2.70;99.90;2.50;100271.00;;;;4993288;27;89007;-67
2022/01/20 02:46:25;;;;;;;7.33;3.07;;;2.70;99.90;2.60;100286.00;;;;4991456;28;87509;-68
2022/01/20 02:48:50;;;;;;;6.53;2.70;;;2.80;99.90;2.60;100288.00;;;;4993524;28;112906;-67
2022/01/20 02:51:16;;;;;;;6.07;2.23;;;2.80;99.90;2.70;100309.00;;;;4995206;28;88225;-68
2022/01/20 02:53:42;;;;;;;7.83;2.57;;;3.20;99.90;2.70;100298.00;;;;4993140;28;108979;-67
2022/01/20 02:56:08;;;;;;;7.57;2.23;;;2.90;99.90;2.80;100305.00;;;;4977445;27;87102;-68
2022/01/20 02:58:34;;;;;;;9.30;2.57;;;3.20;99.90;2.80;100310.00;;;;4994153;27;116510;-68
2022/01/20 03:01:00;;;;;;;9.60;2.70;;;3.00;99.90;2.90;100326.00;;;;4991887;28;87811;-69
2022/01/20 03:03:26;;;;;;;3.70;1.30;;;3.50;99.90;2.90;100306.00;;;;5009039;27;88687;-71
2022/01/20 03:05:52;;;;;;;2.20;1.83;;;3.10;99.90;2.90;100300.00;;;;5014652;27;91485;-70
2022/01/20 03:08:18;;;;;;;6.10;1.60;;;3.20;99.90;2.80;100296.00;;;;4995704;27;88139;-70
2022/01/20 03:10:44;;;;;;;6.63;1.77;;;3.10;99.90;2.70;100305.00;;;;5013154;27;88660;-69
2022/01/20 03:13:10;;;;;;;3.73;1.67;;;2.90;99.90;2.70;100292.00;;;;4986197;28;88003;-69
2022/01/20 03:15:36;;;;;;;7.33;1.37;;;3.00;99.90;2.60;100290.00;;;;4994557;27;87736;-69
2022/01/20 03:18:04;;;;;;;2.03;1.43;;;2.80;99.90;2.60;100306.00;;;;4997212;28;88171;-69
2022/01/20 03:20:32;;;;;;;4.43;0.90;;;2.90;99.90;2.50;100301.00;;;;4979139;28;86890;-68
2022/01/20 03:22:59;;;;;;;3.40;1.43;;;2.70;99.90;2.40;100307.00;;;;5012279;27;87643;-69
2022/01/20 03:25:25;;;;;;;2.70;0.80;;;3.00;99.90;2.20;100304.00;;;;5017670;27;87685;-68
2022/01/20 03:27:51;;;;;;;1.63;0.97;;;2.50;99.90;2.10;100310.00;;;;5015272;27;89360;-68
2022/01/20 03:30:17;;;;;;;6.73;0.90;;;3.20;99.90;2.00;100320.00;;;;5010745;27;118654;-68
2022/01/20 03:32:42;;;;;;;1.33;0.77;;;2.30;99.90;1.90;100326.00;;;;4997441;27;87967;-67
2022/01/20 03:35:09;;;;;;;2.17;0.73;;;2.30;99.90;1.80;100322.00;;;;4994778;28;87611;-68
2022/01/20 03:37:35;;;;;;;4.23;1.43;;;2.20;99.90;1.70;100313.00;;;;4998173;27;87949;-67
2022/01/20 03:40:02;;;;;;;2.37;1.30;;;2.10;99.90;1.70;100316.00;;;;4997105;28;103217;-67
2022/01/20 03:42:28;;;;;;;3.10;1.20;;;1.90;99.90;1.60;100310.00;;;;4996880;27;87873;-67
2022/01/20 03:44:53;;;;;;;1.57;1.03;;;1.90;99.90;1.50;100306.00;;;;4997881;28;87281;-68
2022/01/20 03:47:23;;;;;;;3.73;1.30;;;1.90;99.90;1.50;100299.00;;;;4996562;28;117642;-68
2022/01/20 03:50:05;;;;;;;2.10;1.20;;;1.80;99.90;1.50;100307.00;;;;4996896;28;88164;-68
2022/01/20 03:52:31;;;;;;;2.30;1.40;;;1.80;99.90;1.50;100309.00;;;;5009134;27;89090;-67
2022/01/20 03:54:57;;;;;;;3.17;1.37;;;1.70;99.90;1.40;100317.00;;;;5016704;27;106748;-67
2022/01/20 03:57:23;;;;;;;1.93;1.43;;;1.80;99.90;1.40;100307.00;;;;4997214;27;118133;-68
2022/01/20 03:59:48;;;;;;;3.80;1.90;;;2.40;99.90;1.40;100315.00;;;;4999910;27;107190;-67
2022/01/20 04:02:14;;;;;;;2.70;1.40;;;1.70;99.90;1.40;100321.00;;;;4996446;27;99958;-67
2022/01/20 04:04:40;;;;;;;4.97;1.37;;;1.70;99.90;1.40;100308.00;;;;4997130;27;87811;-67
2022/01/20 04:07:06;;;;;;;5.97;1.77;;;2.30;99.90;1.30;100302.00;;;;4996515;27;118180;-67
2022/01/20 04:09:32;;;;;;;4.03;1.17;;;1.70;99.90;1.40;100296.00;;;;4996221;28;87905;-67
2022/01/20 04:11:58;;;;;;;8.23;1.57;;;2.10;99.90;1.30;100304.00;;;;5003752;27;108514;-67
2022/01/20 04:14:26;;;;;;;7.27;2.37;;;1.60;99.90;1.40;100308.00;;;;5016417;27;87836;-68
2022/01/20 04:17:04;;;;;;;4.83;2.03;;;2.40;99.90;1.30;100306.00;;;;5015631;27;89794;-67
2022/01/20 04:19:32;;;;;;;6.60;1.37;;;2.50;99.90;1.40;100294.00;;;;5016432;27;88850;-68
2022/01/20 04:22:00;;;;;;;8.57;2.47;;;1.60;99.90;1.40;100288.00;;;;4994691;28;88365;-69
2022/01/20 04:24:26;;;;;;;7.47;1.97;;;1.80;99.90;1.40;100288.00;;;;4977407;28;87983;-67
2022/01/20 04:26:51;;;;;;;3.30;2.00;;;1.70;99.90;1.40;100288.00;;;;5003790;27;104391;-68
2022/01/20 04:29:18;;;;;;;8.93;2.17;;;2.30;99.90;1.40;100273.00;;;;5014733;27;117124;-67
2022/01/20 04:31:45;;;;;;;4.70;2.20;;;1.70;99.90;1.40;100276.00;;;;5016118;27;95622;-69
2022/01/20 04:34:12;;;;;;;9.70;1.90;;;1.70;99.90;1.40;100264.00;;;;5017195;27;86948;-68
2022/01/20 04:36:42;;;;;;;7.40;2.03;;;2.20;99.90;1.40;100258.00;;;;5014719;27;88613;-68
2022/01/20 04:39:13;;;;;;;3.90;1.87;;;2.60;99.90;1.40;100273.00;;;;4997741;27;87813;-68
2022/01/20 04:41:39;;;;;;;5.83;1.90;;;2.20;99.90;1.40;100257.00;;;;5015279;27;88436;-68
2022/01/20 04:44:15;;;;;;;10.60;2.13;;;1.70;99.90;1.50;100263.00;;;;5010803;27;87681;-69
2022/01/20 04:46:49;;;;;;;2.03;1.30;;;1.80;99.90;1.50;100273.00;;;;4981020;27;87837;-68
2022/01/20 04:57:29;;;;;;;10.73;2.47;;;2.70;99.90;1.80;100274.00;;;;4999320;27;87729;-67
2022/01/20 04:59:55;;;;;;;8.33;2.33;;;2.10;99.90;1.90;100246.00;;;;5016323;27;88800;-68
2022/01/20 05:02:24;;;;;;;6.57;1.80;;;2.20;99.90;2.00;100245.00;;;;5015020;27;110612;-69
2022/01/20 05:04:52;;;;;;;7.37;2.07;;;2.20;99.90;2.10;100245.00;;;;4983181;28;87689;-69
2022/01/20 05:07:22;;;;;;;5.70;1.70;;;2.20;99.90;2.10;100239.00;;;;4976416;28;90580;-68
2022/01/20 05:09:48;;;;;;;6.20;1.30;;;2.40;99.90;2.20;100232.00;;;;4995750;28;88885;-68
2022/01/20 05:12:18;;;;;;;11.10;1.13;;;2.40;99.90;2.30;100233.00;;;;5006101;27;87807;-68
2022/01/20 05:14:43;;;;;;;7.07;2.27;;;2.40;99.90;2.30;100228.00;;;;5015318;27;87785;-69
2022/01/20 05:17:09;;;;;;;10.50;1.40;;;2.60;99.90;2.30;100219.00;;;;5014674;27;117787;-69
2022/01/20 05:19:35;;;;;;;3.87;1.33;;;2.60;99.90;2.40;100219.00;;;;4995496;27;116979;-69
2022/01/20 05:22:01;;;;;;;6.43;1.93;;;2.60;99.90;2.40;100215.00;;;;5013924;27;111405;-68
2022/01/20 05:24:27;;;;;;;8.70;1.83;;;2.60;99.90;2.40;100198.00;;;;4979094;28;87304;-68
2022/01/20 05:26:55;;;;;;;7.57;2.33;;;2.60;99.90;2.40;100201.00;;;;4994941;28;114277;-69
2022/01/20 05:29:22;;;;;;;3.63;1.77;;;2.80;99.90;2.40;100206.00;;;;4975999;28;87976;-68
2022/01/20 05:31:49;;;;;;;5.23;1.77;;;2.60;99.90;2.50;100202.00;;;;4995405;27;88652;-68
2022/01/20 05:34:15;;;;;;;2.87;1.10;;;2.70;99.90;2.60;100207.00;;;;4995561;27;87693;-68
2022/01/20 05:36:42;;;;;;;2.67;1.17;;;2.80;99.90;2.60;100190.00;;;;4994700;28;117558;-69
2022/01/20 05:39:09;;;;;;;3.00;0.93;;;2.90;99.90;2.60;100195.00;;;;4973538;28;88005;-69
2022/01/20 05:41:35;;;;;;;1.40;1.00;;;2.90;99.90;2.70;100189.00;;;;5004914;27;87891;-69
2022/01/20 05:44:02;;;;;;;8.37;1.57;;;3.20;99.90;2.60;100205.00;;;;5011249;27;89964;-69
2022/01/20 05:46:35;;;;;;;3.07;1.37;;;2.90;99.90;2.60;100200.00;;;;5011968;27;89228;-68
2022/01/20 05:49:08;;;;;;;6.37;1.87;;;2.80;99.90;2.60;100208.00;;;;5014827;27;87827;-71
2022/01/20 05:51:36;;;;;;;3.40;1.70;;;2.80;99.90;2.40;100199.00;;;;4995878;27;87819;-70
2022/01/20 05:54:03;;;;;;;5.10;1.23;;;2.70;99.90;2.40;100195.00;;;;5015211;27;87691;-71
2022/01/20 05:56:29;;;;;;;4.13;1.73;;;2.70;99.90;2.30;100169.00;;;;4978801;27;90458;-69
2022/01/20 05:58:54;;;;;;;6.20;1.33;;;2.90;99.90;2.20;100186.00;;;;5014342;27;117896;-70
2022/01/20 06:01:20;;;;;;;6.77;2.00;;;2.50;99.90;2.20;100177.00;;;;5012868;27;108455;-71
2022/01/20 06:03:46;;;;;;;5.93;1.97;;;2.40;99.90;2.10;100194.00;;;;5014124;27;109040;-71
2022/01/20 06:06:13;;;;;;;5.37;1.83;;;2.40;99.90;2.10;100192.00;;;;5015002;27;88842;-72
2022/01/20 06:08:44;;;;;;;11.87;1.50;;;2.40;99.90;2.10;100180.00;;;;4987821;28;89874;-71
2022/01/20 06:11:10;;;;;;;3.03;1.60;;;2.60;99.90;2.10;100186.00;;;;4994998;28;88085;-72
2022/01/20 06:13:36;;;;;;;12.57;1.43;;;2.40;99.90;2.00;100172.00;;;;4978702;28;108111;-71
2022/01/20 06:16:03;;;;;;;7.93;2.23;;;2.30;99.90;2.00;100186.00;;;;4994891;28;88534;-71
2022/01/20 06:18:29;;;;;;;4.27;2.03;;;2.30;99.90;2.00;100185.00;;;;4994823;27;87873;-72
2022/01/20 06:20:55;;;;;;;8.13;2.00;;;2.30;99.90;2.00;100174.00;;;;5013587;27;111144;-71
2022/01/20 06:23:22;;;;;;;12.50;2.30;;;2.60;99.90;2.00;100171.00;;;;5015168;27;87988;-72
2022/01/20 06:25:48;;;;;;;4.17;1.53;;;2.20;99.90;2.00;100159.00;;;;5014557;27;88083;-72
2022/01/20 06:28:15;;;;;;;2.13;1.23;;;2.20;99.90;2.00;100154.00;;;;4994945;27;88022;-71
2022/01/20 06:30:40;;;;;;;2.93;1.77;;;2.30;99.90;2.00;100157.00;;;;5014701;27;87994;-72
2022/01/20 06:33:07;;;;;;;6.43;2.33;;;2.70;99.90;2.00;100143.00;;;;5014578;27;87706;-71
2022/01/20 06:35:33;;;;;;;4.00;1.73;;;2.70;99.90;2.00;100168.00;;;;5001482;27;94314;-74
2022/01/20 06:37:59;;;;;;;9.00;1.43;;;2.20;99.90;2.00;100168.00;;;;5001082;27;88457;-73
2022/01/20 06:40:25;;;;;;;8.90;1.83;;;2.30;99.90;2.00;100261.00;;;;4993125;28;87738;-75
2022/01/20 06:42:52;;;;;;;3.17;1.40;;;2.30;99.90;2.00;100311.00;;;;4988719;28;87697;-73
2022/01/20 06:45:19;;;;;;;8.57;0.70;;;2.20;99.90;1.70;100323.00;;;;4973770;28;105814;-80
2022/01/20 06:47:45;;;;;;;1.33;0.60;;;3.60;99.90;1.40;100303.00;;;;4975627;28;88334;-79
2022/01/20 06:50:12;;;;;;;1.03;0.50;;;1.80;99.90;1.10;100285.00;;;;4984039;27;110509;-79
2022/01/20 06:52:40;;;;;;;3.83;0.50;;;1.80;99.90;0.90;100284.00;;;;4992237;28;89771;-79
2022/01/20 06:55:10;;;;;;;1.40;0.80;;;2.90;99.90;0.80;100292.00;;;;4994945;28;97773;-78
2022/01/20 06:57:37;;;;;;;1.97;0.60;;;1.10;99.90;0.70;100305.00;;;;4994773;28;88351;-77
2022/01/20 07:00:19;;;;;;;10.20;0.87;;;1.00;99.90;0.70;100295.00;;;;4994591;28;88184;-75
2022/01/20 07:02:46;;;;;;;1.90;0.93;;;1.00;99.90;0.60;100287.00;;;;4995341;28;87210;-74
2022/01/20 07:05:14;;;;;;;2.30;0.80;;;0.80;99.90;0.60;100273.00;;;;4994200;28;89042;-73
2022/01/20 07:07:40;;;;;;;0.60;0.50;;;0.90;99.90;0.60;100285.00;;;;5011029;27;87757;-72
2022/01/20 07:10:09;;;;;;;0.63;0.63;;;0.80;99.90;0.50;100279.00;;;;5016772;27;88783;-72
2022/01/20 07:12:35;;;;;;;2.83;1.17;;;1.40;99.90;0.50;100257.00;;;;5017168;27;87578;-71
2022/01/20 07:15:01;;;;;;;1.27;0.83;;;0.80;99.90;0.50;100272.00;;;;5017132;27;88163;-71
2022/01/20 07:17:27;;;;;;;6.77;0.90;;;0.90;99.90;0.50;100275.00;;;;5012284;27;88832;-72
2022/01/20 07:19:53;;;;;;;12.73;1.57;;;0.70;99.90;0.50;100283.00;;;;4996277;28;110985;-70
2022/01/20 07:22:18;;;;;;;5.40;1.13;;;0.80;99.90;0.50;100293.00;;;;4998105;28;87797;-70
2022/01/20 07:24:44;;;;;;;3.13;0.77;;;0.80;99.90;0.50;100300.00;;;;4996166;27;117515;-68
2022/01/20 07:27:10;;;;;;;4.67;0.90;;;0.90;99.90;0.50;100297.00;;;;4996947;27;116820;-68
2022/01/20 07:29:36;;;;;;;5.83;1.17;;;0.70;99.90;0.50;100309.00;;;;5016203;27;94500;-69
2022/01/20 07:32:03;;;;;;;1.50;0.90;;;0.80;99.90;0.50;100317.00;;;;5017066;27;107798;-69
2022/01/20 07:34:30;;;;;;;6.77;0.90;;;0.90;99.90;0.50;100332.00;;;;5016332;27;90156;-69
2022/01/20 07:36:56;;;;;;;1.30;0.97;;;0.90;99.90;0.50;100319.00;;;;5017168;27;104111;-69
2022/01/20 07:39:22;;;;;;;4.47;1.07;;;0.80;99.90;0.50;100333.00;;;;4997052;27;110202;-70
2022/01/20 07:41:47;;;;;;;1.80;0.63;;;0.80;99.90;0.60;100338.00;;;;4997486;28;92962;-69
2022/01/20 07:44:17;;;;;;;1.00;0.80;;;0.90;99.90;0.60;100343.00;;;;4996423;28;88776;-68
2022/01/20 07:46:47;;;;;;;1.40;0.90;;;1.00;99.90;0.60;100349.00;;;;5011341;27;88768;-68
2022/01/20 07:49:13;;;;;;;4.53;0.90;;;0.90;99.90;0.60;100358.00;;;;4994423;28;87712;-68
2022/01/20 07:51:39;;;;;;;0.93;0.60;;;1.80;99.90;0.70;100357.00;;;;4998513;27;87176;-69
2022/01/20 07:54:05;;;;;;;0.40;0.40;;;0.90;99.90;0.60;100368.00;;;;4996317;28;94725;-69
2022/01/20 07:56:30;;;;;;;1.67;0.77;;;1.80;99.90;0.60;100362.00;;;;4977140;28;116232;-70
2022/01/20 07:58:56;;;;;;;3.37;1.20;;;1.10;99.90;0.60;100370.00;;;;4995124;27;111241;-70
2022/01/20 08:01:24;;;;;;;1.13;1.03;;;0.90;99.90;0.50;100369.00;;;;4977404;28;109106;-69
2022/01/20 08:03:52;;;;;;;1.83;0.93;;;0.80;99.90;0.50;100383.00;;;;4996765;27;88785;-69
2022/01/20 08:06:19;;;;;;;2.70;1.27;;;0.90;99.90;0.50;100389.00;;;;5015373;27;88860;-69
2022/01/20 08:08:46;;;;;;;1.23;0.77;;;1.70;99.90;0.50;100404.00;;;;5016433;27;87884;-70
2022/01/20 08:11:12;;;;;;;4.87;1.37;;;1.50;99.90;0.50;100403.00;;;;5017642;27;87744;-71
2022/01/20 08:13:38;;;;;;;3.20;0.90;;;1.70;99.90;0.60;100397.00;;;;4992468;28;87852;-69
2022/01/20 08:16:04;;;;;;;1.93;1.17;;;1.30;99.90;0.70;100418.00;;;;4995425;28;115920;-69
2022/01/20 08:18:29;;;;;;;1.83;0.80;;;0.90;99.90;0.70;100429.00;;;;4996409;28;87745;-69
2022/01/20 08:20:55;;;;;;;4.60;1.90;;;0.90;99.90;0.70;100438.00;;;;4996831;28;96716;-70
2022/01/20 08:23:21;;;;;;;0.90;0.67;;;1.00;99.90;0.80;100436.00;;;;4980484;28;97820;-70
2022/01/20 08:25:48;;;;;;;1.73;1.10;;;1.00;99.90;0.80;100440.00;;;;4998299;27;89676;-70
2022/01/20 08:28:14;;;;;;;4.13;1.43;;;1.10;99.90;0.80;100445.00;;;;5015355;27;94977;-70
2022/01/20 08:30:41;;;;;;;5.57;1.60;;;1.00;99.90;0.80;100455.00;;;;5016592;27;87854;-69
2022/01/20 08:33:07;;;;;;;7.33;1.63;;;1.10;99.90;0.80;100450.00;;;;4997943;27;89115;-69
2022/01/20 08:35:33;;;;;;;7.10;1.20;;;1.10;99.90;0.90;100464.00;;;;5014960;27;118861;-69
2022/01/20 08:38:01;;;;;;;3.97;1.43;;;1.50;99.90;0.90;100461.00;;;;5016132;27;87794;-71
2022/01/20 08:40:27;;;;;;;2.73;1.53;;;1.20;99.90;0.90;100458.00;;;;4997599;27;87347;-70
2022/01/20 08:42:55;;;;;;;6.77;1.20;;;2.00;99.90;0.90;100468.00;;;;5001311;27;89244;-69
2022/01/20 08:45:25;;;;;;;5.30;1.40;;;2.00;99.90;0.90;100446.00;;;;4996133;28;87792;-70
2022/01/20 08:47:54;;;;;;;0.87;0.57;;;1.60;99.90;0.90;100463.00;;;;4997508;27;88923;-70
2022/01/20 08:50:22;;;;;;;4.13;1.03;;;1.20;99.90;1.00;100478.00;;;;4995542;28;88861;-71
2022/01/20 08:52:48;;;;;;;0.60;0.53;;;1.20;99.90;1.00;100478.00;;;;4995558;27;89015;-70
2022/01/20 08:55:14;;;;;;;5.97;1.47;;;1.70;99.90;1.10;100487.00;;;;4994949;28;88671;-70
2022/01/20 08:57:40;;;;;;;4.47;1.23;;;2.00;99.90;1.20;100476.00;;;;4995722;28;88088;-69
2022/01/20 09:00:07;;;;;;;5.67;1.60;;;2.10;99.90;1.20;100482.00;;;;4995010;28;109257;-70
2022/01/20 09:02:33;;;;;;;5.13;1.00;;;1.50;99.90;1.40;100473.00;;;;4991763;28;93871;-70
2022/01/20 09:05:00;;;;;;;2.30;1.17;;;1.60;99.90;1.70;100475.00;;;;4992777;28;122809;-70
2022/01/20 09:07:27;;;;;;;2.47;1.23;;;1.80;99.90;2.00;100485.00;;;;4958434;28;92838;-70
2022/01/20 09:09:55;;;;;;;4.70;1.13;;;2.10;99.90;2.30;100476.00;;;;4998906;27;92883;-71
2022/01/20 09:17:46;;;;;;;9.60;1.37;;;2.90;99.90;3.00;100481.00;;;;4981648;28;92847;-68
2022/01/20 09:20:12;;;;;;;6.37;1.60;;;3.20;99.90;3.20;100487.00;;;;4992038;28;108186;-69
2022/01/20 09:22:38;;;;;;;1.50;1.07;;;3.70;99.90;3.40;100503.00;;;;4992528;28;94069;-69
2022/01/20 09:25:06;;;;;;;15.93;1.33;;;3.50;99.90;3.50;100495.00;;;;5008280;27;93137;-69
2022/01/20 09:27:32;;;;;;;3.43;1.30;;;3.70;99.90;3.70;100505.00;;;;5011828;27;98402;-68
2022/01/20 09:30:04;;;;;;;3.93;0.97;;;3.90;99.90;3.90;100514.00;;;;4994663;27;92261;-69
2022/01/20 09:32:33;;;;;;;2.47;0.83;;;4.10;99.90;4.00;100514.00;;;;5012949;27;93164;-68
2022/01/20 09:35:00;;;;;;;3.13;1.10;;;4.20;99.90;4.00;100519.00;;;;5011181;27;93430;-69
2022/01/20 09:37:25;;;;;;;5.60;1.10;;;4.20;99.90;4.00;100543.00;;;;4999565;27;109623;-69
2022/01/20 09:39:51;;;;;;;3.27;1.27;;;4.30;99.90;4.00;100544.00;;;;4974374;27;93553;-69
2022/01/20 09:42:18;;;;;;;5.70;1.77;;;4.20;99.90;3.90;100547.00;;;;4992524;28;93132;-69
2022/01/20 09:44:46;;;;;;;11.67;1.60;;;4.20;99.90;3.90;100550.00;;;;4993278;27;92809;-70
2022/01/20 09:47:13;;;;;;;4.27;1.20;;;4.10;99.90;3.90;100539.00;;;;4993252;28;92938;-69
2022/01/20 09:49:39;;;;;;;3.07;1.00;;;4.10;99.90;3.90;100552.00;;;;4972897;27;92972;-70
2022/01/20 09:52:05;;;;;;;3.37;1.37;;;4.00;99.90;3.90;100552.00;;;;4992835;28;92903;-70
2022/01/20 09:54:31;;;;;;;5.73;1.00;;;4.10;99.90;4.00;100558.00;;;;4982258;28;122207;-71
2022/01/20 09:56:58;;;;;;;2.83;0.90;;;4.20;99.90;4.20;100566.00;;;;5012490;27;92873;-69
2022/01/20 09:59:24;;;;;;;3.63;1.17;;;4.30;99.90;4.50;100558.00;;;;4992276;27;92840;-70
2022/01/20 10:01:56;;;;;;;1.27;1.13;;;4.50;99.90;4.60;100555.00;;;;5011256;27;95459;-69
2022/01/20 10:04:27;;;;;;;1.43;0.90;;;4.70;99.90;4.70;100568.00;;;;5011452;27;93688;-71
2022/01/20 10:07:09;;;;;;;7.97;1.63;;;4.90;99.90;4.80;100557.00;;;;4984646;28;93134;-70
2022/01/20 10:09:52;;;;;;;9.63;1.60;;;4.90;99.00;4.90;100561.00;;;;4983998;28;92973;-70
2022/01/20 10:12:19;;;;;;;5.63;1.37;;;5.00;96.00;4.90;100540.00;;;;4992005;28;97379;-71
2022/01/20 10:14:51;;;;;;;2.77;0.80;;;5.10;97.20;5.10;100570.00;;;;4989076;28;93753;-70
2022/01/20 10:17:27;;;;;;;3.67;0.83;;;5.20;97.90;5.20;100574.00;;;;4971774;28;93295;-70
2022/01/20 10:20:00;;;;;;;3.73;0.90;;;5.30;97.30;5.40;100576.00;;;;4972382;28;92125;-69
2022/01/20 10:22:27;;;;;;;0.87;0.67;;;5.50;94.80;5.50;100559.00;;;;4971558;28;94281;-68
2022/01/20 10:25:14;;;;;;;5.87;1.13;;;5.50;93.70;5.60;100563.00;;;;4973239;28;93367;-68
2022/01/20 10:27:53;;;;;;;7.40;1.43;;;5.80;92.30;5.50;100559.00;;;;4957098;28;94099;-67
2022/01/20 10:30:23;;;;;;;8.43;1.30;;;5.70;92.00;5.60;100558.00;;;;4976051;28;92715;-69
2022/01/20 10:32:51;;;;;;;6.23;0.97;;;5.70;89.70;5.50;100565.00;;;;4983796;28;94152;-69
2022/01/20 10:35:24;;;;;;;6.33;1.10;;;5.80;89.70;5.50;100557.00;;;;4985016;28;107794;-69
2022/01/20 10:38:00;;;;;;;5.87;1.60;;;5.60;90.70;5.50;100561.00;;;;4981590;28;92754;-69
2022/01/20 10:40:27;;;;;;;2.83;1.10;;;5.60;87.50;5.50;100567.00;;;;4995162;28;92875;-70
2022/01/20 10:42:53;;;;;;;4.47;1.53;;;5.70;90.90;5.60;100549.00;;;;4977044;28;93277;-69
2022/01/20 10:45:27;;;;;;;3.07;1.13;;;5.70;90.90;5.80;100559.00;;;;4976471;28;93465;-68
2022/01/20 10:47:59;;;;;;;2.60;1.07;;;6.00;88.80;5.90;100554.00;;;;4970426;28;92916;-68
2022/01/20 10:50:32;;;;;;;7.07;1.30;;;6.00;86.60;5.90;100562.00;;;;4957121;28;92952;-68
2022/01/20 10:52:58;;;;;;;10.23;1.47;;;6.00;84.20;5.80;100549.00;;;;4974662;28;94509;-68
2022/01/20 10:55:25;;;;;;;10.20;1.43;;;6.00;81.10;5.70;100559.00;;;;4975737;28;94294;-68
2022/01/20 10:57:53;;;;;;;1.93;1.20;;;5.90;80.00;5.70;100552.00;;;;4979560;28;93293;-67
2022/01/20 11:00:22;;;;;;;7.07;1.83;;;5.80;80.10;5.60;100547.00;;;;4994466;28;92885;-66
2022/01/20 11:02:51;;;;;;;2.80;1.23;;;6.10;79.90;5.40;100546.00;;;;4985825;28;93357;-67
2022/01/20 11:05:18;;;;;;;5.47;1.57;;;5.60;78.60;5.20;100535.00;;;;4976395;28;93758;-67
2022/01/20 11:07:45;;;;;;;9.37;1.80;;;5.50;77.50;4.90;100544.00;;;;4975933;28;92745;-67
2022/01/20 11:10:11;;;;;;;3.37;1.30;;;5.20;78.90;4.90;100534.00;;;;4975708;28;91987;-67
2022/01/20 11:12:39;;;;;;;2.73;1.30;;;5.10;78.20;4.70;100542.00;;;;4974796;28;94090;-67
2022/01/20 11:15:09;;;;;;;2.63;1.73;;;4.90;77.90;4.60;100542.00;;;;4979706;27;93229;-66
2022/01/20 11:17:40;;;;;;;6.70;1.43;;;4.90;78.10;4.30;100557.00;;;;4976006;27;93639;-66
2022/01/20 11:20:12;;;;;;;4.10;1.87;;;4.60;78.90;4.10;100563.00;;;;4994925;28;92869;-67
2022/01/20 11:22:52;;;;;;;4.93;1.20;;;4.40;80.90;3.90;100549.00;;;;4995171;28;92935;-68
2022/01/20 11:25:21;;;;;;;2.27;0.97;;;4.20;82.30;3.90;100560.00;;;;4995072;27;92811;-67
2022/01/20 11:27:47;;;;;;;1.03;0.70;;;4.10;82.30;3.80;100555.00;;;;4994792;28;92617;-68
2022/01/20 11:30:33;;;;;;;2.73;0.93;;;3.90;84.30;3.80;100561.00;;;;4995756;27;92802;-68
2022/01/20 11:33:01;;;;;;;4.10;1.40;;;4.00;84.10;3.90;100557.00;;;;4994507;28;92741;-68
2022/01/20 11:35:42;;;;;;;7.00;1.53;;;4.10;84.30;3.90;100544.00;;;;4982314;28;92637;-67
2022/01/20 11:38:10;;;;;;;2.10;1.00;;;4.00;85.40;4.10;100564.00;;;;4991817;27;93074;-68
2022/01/20 11:40:52;;;;;;;4.40;1.37;;;4.20;84.70;4.40;100564.00;;;;5006680;27;92769;-68
2022/01/20 11:43:18;;;;;;;2.53;0.90;;;4.40;83.90;4.40;100564.00;;;;5011250;27;94201;-68
2022/01/20 11:45:51;;;;;;;10.50;1.53;;;4.50;82.10;4.60;100561.00;;;;5001327;27;93884;-68
2022/01/20 11:48:23;;;;;;;5.90;1.40;;;4.60;81.70;4.70;100563.00;;;;4993477;27;92799;-68
2022/01/20 11:51:08;;;;;;;2.47;1.20;;;4.80;79.80;4.80;100565.00;;;;4989249;27;93083;-69
2022/01/20 11:53:41;;;;;;;2.80;1.13;;;4.90;79.60;5.00;100546.00;;;;4991893;27;93303;-68
2022/01/20 11:56:09;;;;;;;1.93;0.87;;;5.10;80.80;5.20;100555.00;;;;5010470;27;93908;-68
2022/01/20 11:58:35;;;;;;;5.33;1.43;;;5.20;80.10;5.20;100567.00;;;;5005516;27;92723;-68
2022/01/20 12:01:10;;;;;;;5.23;1.10;;;5.30;78.40;5.00;100556.00;;;;5012340;27;92140;-68
2022/01/20 12:03:49;;;;;;;3.00;1.30;;;5.30;78.00;5.00;100545.00;;;;5010488;27;123180;-68
2022/01/20 12:06:22;;;;;;;2.13;1.37;;;5.20;78.10;5.00;100557.00;;;;4979197;27;93069;-69
2022/01/20 12:09:02;;;;;;;4.07;1.03;;;5.10;78.60;4.90;100546.00;;;;5010882;27;93989;-68